Time;durP1;ratioP1;P1;durP2;ratioP2;P2;SDS_P1;SDS_P2;PMS_P1;PMS_P2;Temp;Humidity;BMP_temperature;BMP_pressure;BME280_temperature;BME280_humidity;BME280_pressure;Samples;Min_cycle;Max_cycle;Signal;HPM_P1;HPM_P2
2021/04/04 00:00:19;;;;;;;10.70;8.20;;;2.40;90.80;;;;;;4998327;28;20294;-83
2021/04/04 00:03:12;;;;;;;17.40;11.63;;;2.30;91.20;;;;;;5015548;28;20192;-81
2021/04/04 00:05:40;;;;;;;16.50;12.43;;;2.30;91.20;;;;;;5013305;28;20191;-82
2021/04/04 00:08:08;;;;;;;14.93;10.20;;;2.40;91.30;;;;;;5004919;28;20956;-82
2021/04/04 00:10:37;;;;;;;14.13;10.20;;;2.40;91.10;;;;;;4997346;28;20211;-81
2021/04/04 00:13:04;;;;;;;14.80;10.87;;;2.30;91.00;;;;;;4994441;28;20585;-80
2021/04/04 00:15:32;;;;;;;17.27;12.03;;;2.20;91.10;;;;;;5002856;28;20223;-82
2021/04/04 00:18:00;;;;;;;17.63;13.67;;;2.10;91.40;;;;;;4995398;28;20210;-81
2021/04/04 00:20:27;;;;;;;16.30;14.03;;;2.10;91.90;;;;;;5017217;28;20277;-82
2021/04/04 00:22:56;;;;;;;21.50;15.13;;;2.10;91.90;;;;;;5000128;28;20212;-82
2021/04/04 00:25:24;;;;;;;18.77;15.40;;;2.10;92.00;;;;;;4994793;28;20215;-83
2021/04/04 00:27:52;;;;;;;17.20;12.07;;;2.10;91.90;;;;;;4998235;28;20207;-83
2021/04/04 00:30:21;;;;;;;17.17;12.43;;;2.20;91.80;;;;;;4989114;28;20204;-83
2021/04/04 00:32:50;;;;;;;17.97;12.90;;;2.10;91.50;;;;;;5007212;28;20223;-81
2021/04/04 00:35:19;;;;;;;19.63;13.27;;;2.00;91.70;;;;;;4997640;28;20725;-82
2021/04/04 00:37:48;;;;;;;11.50;8.53;;;2.00;92.00;;;;;;4995967;28;20301;-83
2021/04/04 00:40:19;;;;;;;15.90;11.90;;;2.00;92.40;;;;;;4991628;28;20671;-82
2021/04/04 00:42:47;;;;;;;17.07;10.93;;;2.00;92.20;;;;;;4997446;28;20208;-82
2021/04/04 00:45:16;;;;;;;15.37;11.23;;;2.00;92.10;;;;;;5013335;28;20213;-82
2021/04/04 00:47:44;;;;;;;13.00;8.67;;;2.00;92.20;;;;;;5009672;28;20670;-83
2021/04/04 00:50:14;;;;;;;15.83;8.47;;;1.90;92.30;;;;;;4991430;28;20245;-81
2021/04/04 00:52:43;;;;;;;12.00;7.97;;;1.90;92.90;;;;;;4996539;28;20226;-82
2021/04/04 00:55:13;;;;;;;9.33;7.80;;;1.80;93.10;;;;;;4988756;28;20204;-82
2021/04/04 00:57:43;;;;;;;13.10;6.57;;;1.80;93.30;;;;;;4994275;28;20206;-82
2021/04/04 01:00:15;;;;;;;11.13;8.30;;;1.80;93.70;;;;;;4991672;28;20211;-82
2021/04/04 01:02:43;;;;;;;11.87;8.03;;;1.70;93.60;;;;;;4989862;28;20207;-81
2021/04/04 01:05:17;;;;;;;10.63;7.90;;;1.60;93.70;;;;;;4992897;28;20210;-84
2021/04/04 01:07:47;;;;;;;9.43;7.50;;;1.70;94.50;;;;;;4994680;28;20211;-82
2021/04/04 01:10:15;;;;;;;8.23;6.90;;;1.60;94.60;;;;;;4990583;28;21526;-82
2021/04/04 01:12:52;;;;;;;11.43;7.80;;;1.60;94.70;;;;;;4992293;28;20203;-83
2021/04/04 01:15:25;;;;;;;11.00;6.37;;;1.60;94.90;;;;;;5007917;28;20269;-84
2021/04/04 01:17:55;;;;;;;11.70;6.27;;;1.60;95.20;;;;;;5011060;28;20311;-81
2021/04/04 01:20:28;;;;;;;9.10;6.40;;;1.70;95.00;;;;;;5002283;28;20424;-84
2021/04/04 01:23:37;;;;;;;9.13;5.20;;;1.60;95.10;;;;;;5002244;28;20261;-80
2021/04/04 01:26:15;;;;;;;8.83;5.40;;;1.70;95.20;;;;;;4931251;28;20230;-83
2021/04/04 01:28:44;;;;;;;10.80;5.17;;;1.70;94.90;;;;;;5019601;28;20198;-82
2021/04/04 01:31:13;;;;;;;6.33;4.50;;;1.80;94.50;;;;;;5010415;28;20188;-83
2021/04/04 01:33:43;;;;;;;9.57;5.90;;;1.80;94.10;;;;;;5014294;28;20307;-82
2021/04/04 01:36:13;;;;;;;11.63;5.87;;;1.90;93.90;;;;;;4998458;28;20659;-82
2021/04/04 01:38:43;;;;;;;13.60;6.60;;;1.80;93.70;;;;;;5002435;28;20204;-81
2021/04/04 01:41:18;;;;;;;9.50;5.73;;;1.90;93.70;;;;;;4995385;28;20281;-82
2021/04/04 01:43:49;;;;;;;7.77;5.10;;;1.90;93.50;;;;;;4994844;28;20203;-81
2021/04/04 01:46:19;;;;;;;9.13;5.43;;;2.00;93.00;;;;;;5007263;28;20223;-82
2021/04/04 01:48:47;;;;;;;9.27;5.50;;;2.10;92.60;;;;;;5006979;28;20210;-82
2021/04/04 01:51:15;;;;;;;5.67;4.03;;;2.10;92.20;;;;;;5007935;28;20229;-81
2021/04/04 01:53:44;;;;;;;6.47;4.07;;;2.10;92.30;;;;;;5010867;28;20870;-81
2021/04/04 01:56:12;;;;;;;8.13;5.03;;;2.30;92.20;;;;;;5005842;28;20211;-83
2021/04/04 01:58:42;;;;;;;6.27;5.23;;;2.20;91.80;;;;;;5016758;28;20487;-82
2021/04/04 02:01:11;;;;;;;11.23;5.27;;;2.20;91.80;;;;;;5010549;28;20266;-84
2021/04/04 02:03:40;;;;;;;9.57;6.17;;;2.20;92.00;;;;;;5004442;28;20219;-82
2021/04/04 02:06:10;;;;;;;11.47;6.63;;;2.30;91.80;;;;;;5001490;28;20489;-83
2021/04/04 02:08:42;;;;;;;14.70;10.07;;;2.30;91.70;;;;;;5014613;28;20184;-84
2021/04/04 02:11:10;;;;;;;15.47;12.33;;;2.30;91.40;;;;;;4999526;28;20407;-84
2021/04/04 02:13:39;;;;;;;17.40;12.90;;;2.30;91.40;;;;;;4992036;28;20224;-82
2021/04/04 02:16:07;;;;;;;19.80;16.03;;;2.40;91.50;;;;;;4995455;28;20355;-83
2021/04/04 02:18:37;;;;;;;13.97;11.50;;;2.40;91.20;;;;;;4992305;28;20213;-82
2021/04/04 02:21:05;;;;;;;15.40;13.03;;;2.30;91.30;;;;;;4993260;28;20232;-83
2021/04/04 02:23:34;;;;;;;15.93;13.13;;;2.30;91.40;;;;;;4994764;28;20207;-82
2021/04/04 02:26:01;;;;;;;14.83;12.30;;;2.30;91.50;;;;;;4992338;28;20204;-82
2021/04/04 02:28:30;;;;;;;13.87;11.53;;;2.30;91.60;;;;;;4996290;28;20203;-80
2021/04/04 02:30:59;;;;;;;14.10;11.63;;;2.30;91.50;;;;;;4994106;28;20804;-82
2021/04/04 02:33:31;;;;;;;15.17;11.47;;;2.30;91.60;;;;;;4988851;28;20230;-81
2021/04/04 02:36:06;;;;;;;14.03;10.87;;;2.30;91.50;;;;;;4999648;28;20207;-82
2021/04/04 02:38:37;;;;;;;13.03;10.57;;;2.40;91.30;;;;;;5001439;28;20238;-83
2021/04/04 02:41:08;;;;;;;19.53;13.67;;;2.30;91.30;;;;;;5017690;28;20392;-82
2021/04/04 02:43:38;;;;;;;17.47;13.90;;;2.30;91.50;;;;;;5014514;28;20388;-83
2021/04/04 02:46:09;;;;;;;13.67;12.27;;;2.30;91.40;;;;;;5017776;28;20213;-82
2021/04/04 02:48:43;;;;;;;10.30;7.93;;;2.40;91.50;;;;;;5005166;28;20207;-82
2021/04/04 02:51:15;;;;;;;13.07;8.97;;;2.40;91.10;;;;;;5013993;28;20226;-83
2021/04/04 02:53:48;;;;;;;12.73;9.40;;;2.40;91.00;;;;;;5019682;28;20219;-82
2021/04/04 02:56:19;;;;;;;10.87;7.93;;;2.40;90.90;;;;;;5010805;28;20704;-82
2021/04/04 02:58:50;;;;;;;7.97;6.43;;;2.40;91.10;;;;;;5017936;28;20203;-83
2021/04/04 03:01:18;;;;;;;9.33;5.97;;;2.40;91.10;;;;;;5011292;28;20207;-82
2021/04/04 03:03:50;;;;;;;10.93;6.80;;;2.50;90.90;;;;;;5007577;28;20204;-82
2021/04/04 03:06:19;;;;;;;11.17;5.93;;;2.40;91.00;;;;;;5000896;28;20234;-81
2021/04/04 03:08:48;;;;;;;5.97;4.33;;;2.40;90.90;;;;;;4994393;28;20203;-82
2021/04/04 03:11:17;;;;;;;8.60;5.80;;;2.50;91.00;;;;;;4996981;28;20595;-83
2021/04/04 03:13:49;;;;;;;8.57;5.17;;;2.50;90.70;;;;;;4993514;28;20227;-82
2021/04/04 03:16:18;;;;;;;10.07;5.00;;;2.50;91.00;;;;;;4993535;28;20888;-82
2021/04/04 03:18:47;;;;;;;10.43;4.90;;;2.50;91.00;;;;;;4992830;28;20255;-83
2021/04/04 03:21:16;;;;;;;6.03;3.97;;;2.40;91.00;;;;;;4991345;28;20298;-82
2021/04/04 03:23:45;;;;;;;8.67;4.80;;;2.30;91.20;;;;;;4992432;28;20743;-83
2021/04/04 03:26:14;;;;;;;7.17;4.90;;;2.30;91.40;;;;;;4990464;28;20212;-84
2021/04/04 03:28:42;;;;;;;11.00;5.77;;;2.30;91.60;;;;;;4999955;28;20906;-82
2021/04/04 03:31:14;;;;;;;7.93;5.03;;;2.30;91.30;;;;;;4995853;28;20215;-82
2021/04/04 03:33:43;;;;;;;6.20;3.10;;;2.30;91.30;;;;;;4990532;28;20806;-81
2021/04/04 03:36:15;;;;;;;7.90;4.97;;;2.30;91.40;;;;;;4993466;28;20650;-81
2021/04/04 03:38:45;;;;;;;9.43;6.20;;;2.40;91.60;;;;;;4990771;28;20566;-82
2021/04/04 03:41:15;;;;;;;10.70;5.67;;;2.30;91.60;;;;;;4998349;28;20192;-82
2021/04/04 03:43:48;;;;;;;9.10;6.50;;;2.50;91.50;;;;;;5003034;28;20204;-83
2021/04/04 03:46:19;;;;;;;9.67;6.33;;;2.30;91.40;;;;;;4995029;28;20205;-83
2021/04/04 03:48:48;;;;;;;9.47;6.43;;;2.20;91.30;;;;;;4992053;28;20257;-82
2021/04/04 03:51:16;;;;;;;10.27;6.27;;;2.20;91.60;;;;;;4991119;28;20690;-81
2021/04/04 03:53:46;;;;;;;9.07;5.37;;;2.20;91.70;;;;;;4992010;28;20765;-82
2021/04/04 03:56:21;;;;;;;9.20;6.43;;;2.20;92.00;;;;;;4992712;28;20203;-82
2021/04/04 03:58:50;;;;;;;11.87;6.90;;;2.20;91.90;;;;;;4991718;28;20859;-83
2021/04/04 04:01:21;;;;;;;10.73;7.80;;;2.20;91.90;;;;;;5011831;28;20210;-81
2021/04/04 04:03:51;;;;;;;10.23;7.77;;;2.20;92.00;;;;;;5006891;28;20216;-80
2021/04/04 04:06:20;;;;;;;13.03;8.10;;;2.20;91.90;;;;;;5009319;28;20213;-82
2021/04/04 04:08:50;;;;;;;19.33;10.03;;;2.30;92.10;;;;;;5004874;28;20947;-82
2021/04/04 04:11:19;;;;;;;20.50;11.87;;;2.20;92.00;;;;;;5005310;28;20207;-82
2021/04/04 04:13:48;;;;;;;19.83;13.63;;;2.20;91.70;;;;;;5007290;28;20231;-82
2021/04/04 04:16:17;;;;;;;22.93;14.57;;;2.20;92.00;;;;;;5003939;28;20212;-80
2021/04/04 04:18:45;;;;;;;21.67;15.63;;;2.20;92.30;;;;;;5001569;28;20195;-84
2021/04/04 04:21:14;;;;;;;20.33;14.77;;;2.20;92.50;;;;;;5015510;28;20224;-82
2021/04/04 04:23:43;;;;;;;23.87;15.77;;;2.20;92.50;;;;;;5010998;28;20264;-82
2021/04/04 04:26:15;;;;;;;22.53;14.53;;;2.20;92.20;;;;;;5013171;28;20204;-83
2021/04/04 04:28:45;;;;;;;20.73;14.23;;;2.20;92.50;;;;;;5003189;28;20207;-82
2021/04/04 04:31:18;;;;;;;22.33;15.10;;;2.30;92.00;;;;;;5007384;28;20235;-82
2021/04/04 04:33:49;;;;;;;22.03;14.40;;;2.20;91.80;;;;;;4997480;28;20257;-82
2021/04/04 04:36:20;;;;;;;18.70;10.40;;;2.20;92.00;;;;;;5001115;28;20214;-82
2021/04/04 04:38:50;;;;;;;14.33;8.53;;;2.20;92.20;;;;;;4993617;28;20203;-85
2021/04/04 04:41:19;;;;;;;20.57;12.73;;;2.20;92.00;;;;;;4999159;28;20207;-82
2021/04/04 04:43:52;;;;;;;24.53;14.77;;;2.20;92.20;;;;;;4994495;28;20964;-82
2021/04/04 04:46:20;;;;;;;25.60;15.40;;;2.30;92.10;;;;;;4997006;28;20214;-82
2021/04/04 04:48:48;;;;;;;29.23;18.43;;;2.30;92.20;;;;;;4999225;28;20200;-81
2021/04/04 04:51:18;;;;;;;26.03;19.03;;;2.30;92.00;;;;;;4999318;28;20211;-82
2021/04/04 04:53:46;;;;;;;25.53;15.57;;;2.40;92.10;;;;;;4994551;28;20242;-80
2021/04/04 04:56:15;;;;;;;25.10;16.87;;;2.40;91.80;;;;;;5004612;28;20903;-81
2021/04/04 04:58:44;;;;;;;28.70;17.80;;;2.40;91.40;;;;;;4992926;28;20214;-82
2021/04/04 05:01:16;;;;;;;26.37;18.37;;;2.40;91.30;;;;;;4996221;28;20205;-83
2021/04/04 05:03:47;;;;;;;29.50;16.20;;;2.40;91.20;;;;;;4996498;28;20200;-82
2021/04/04 05:06:15;;;;;;;22.50;15.53;;;2.40;91.20;;;;;;5001850;28;20662;-83
2021/04/04 05:08:46;;;;;;;26.87;18.00;;;2.20;91.40;;;;;;4991727;28;20209;-84
2021/04/04 05:11:16;;;;;;;25.57;17.60;;;2.40;91.50;;;;;;5007876;28;20235;-83
2021/04/04 05:13:47;;;;;;;32.83;20.00;;;2.40;91.80;;;;;;5012720;28;20215;-83
2021/04/04 05:16:16;;;;;;;28.43;18.30;;;2.50;91.60;;;;;;5011965;28;20213;-81
2021/04/04 05:18:49;;;;;;;22.17;15.47;;;2.50;91.70;;;;;;5010914;28;20196;-81
2021/04/04 05:21:24;;;;;;;15.00;11.43;;;2.60;91.30;;;;;;5013388;28;20230;-82
2021/04/04 05:23:56;;;;;;;10.87;8.80;;;2.60;91.10;;;;;;5006840;28;20207;-82
2021/04/04 05:26:29;;;;;;;8.30;6.83;;;2.60;91.00;;;;;;5016193;28;20195;-83
2021/04/04 05:29:01;;;;;;;11.10;6.80;;;2.60;90.90;;;;;;4998374;28;20211;-82
2021/04/04 05:31:29;;;;;;;9.43;6.67;;;2.60;90.90;;;;;;4994686;28;20696;-81
2021/04/04 05:33:57;;;;;;;9.77;6.73;;;2.60;90.90;;;;;;4989210;28;20228;-82
2021/04/04 05:36:25;;;;;;;11.23;7.20;;;2.70;91.20;;;;;;4996072;28;20208;-80
2021/04/04 05:38:56;;;;;;;9.47;6.47;;;2.80;90.80;;;;;;4991576;28;20204;-83
2021/04/04 05:41:27;;;;;;;10.20;6.23;;;2.80;90.50;;;;;;4991549;28;20233;-82
2021/04/04 05:43:58;;;;;;;7.97;5.97;;;2.80;90.40;;;;;;5005968;28;20188;-82
2021/04/04 05:46:34;;;;;;;9.53;5.57;;;2.70;90.30;;;;;;5017846;28;20189;-83
2021/04/04 05:49:05;;;;;;;8.73;5.67;;;2.70;90.40;;;;;;5013739;28;20206;-81
2021/04/04 05:51:45;;;;;;;7.93;6.00;;;2.80;90.60;;;;;;5016971;28;20215;-81
2021/04/04 05:54:40;;;;;;;7.90;6.00;;;2.60;90.50;;;;;;5007725;28;20239;-81
2021/04/04 05:57:14;;;;;;;8.47;6.13;;;2.60;90.50;;;;;;5001275;28;20271;-84
2021/04/04 05:59:46;;;;;;;8.40;5.77;;;2.60;90.60;;;;;;5004242;28;20211;-83
2021/04/04 06:02:42;;;;;;;8.80;5.87;;;2.60;90.70;;;;;;5003859;28;20213;-82
2021/04/04 06:05:25;;;;;;;6.83;6.20;;;2.60;90.80;;;;;;5003313;28;20216;-81
2021/04/04 06:08:18;;;;;;;8.70;6.37;;;2.70;90.80;;;;;;5001919;28;20204;-80
2021/04/04 06:10:54;;;;;;;10.30;6.80;;;2.80;90.60;;;;;;5010633;28;20216;-82
2021/04/04 06:13:36;;;;;;;8.97;5.83;;;2.80;90.20;;;;;;5015165;28;20196;-82
2021/04/04 06:16:17;;;;;;;7.93;5.17;;;2.80;90.30;;;;;;5011981;28;20211;-81
2021/04/04 06:19:05;;;;;;;8.77;5.93;;;2.70;90.40;;;;;;5013664;28;20200;-82
2021/04/04 06:21:40;;;;;;;11.53;6.60;;;2.70;90.40;;;;;;5015490;28;20193;-80
2021/04/04 06:24:17;;;;;;;10.20;6.47;;;2.80;90.40;;;;;;5014640;28;20195;-81
2021/04/04 06:26:56;;;;;;;9.27;6.13;;;2.70;90.40;;;;;;5012453;28;20213;-81
2021/04/04 06:29:35;;;;;;;7.90;6.47;;;2.80;90.30;;;;;;5005671;28;20214;-82
2021/04/04 06:32:11;;;;;;;7.67;6.87;;;2.80;90.40;;;;;;5002262;28;20218;-82
2021/04/04 06:34:43;;;;;;;10.90;6.90;;;2.80;90.40;;;;;;5007099;28;20225;-81
2021/04/04 06:37:47;;;;;;;9.47;6.67;;;2.80;90.60;;;;;;5008734;28;20372;-83
2021/04/04 06:40:22;;;;;;;11.47;7.23;;;2.90;90.70;;;;;;4996029;28;20223;-82
2021/04/04 06:43:03;;;;;;;9.17;6.33;;;2.90;90.60;;;;;;4998448;28;20208;-84
2021/04/04 06:45:42;;;;;;;9.20;6.70;;;2.90;90.60;;;;;;5002890;28;20209;-83
2021/04/04 06:48:38;;;;;;;11.27;6.47;;;3.00;90.50;;;;;;4999247;28;20521;-81
2021/04/04 06:51:22;;;;;;;10.60;6.10;;;3.20;90.80;;;;;;4998702;28;21079;-83
2021/04/04 06:54:11;;;;;;;8.07;5.10;;;3.40;90.10;;;;;;5001810;28;20584;-82
2021/04/04 06:57:02;;;;;;;9.57;5.50;;;3.50;89.10;;;;;;4999785;28;20703;-81
2021/04/04 06:59:38;;;;;;;6.83;5.77;;;3.80;89.00;;;;;;5000866;28;20222;-83
2021/04/04 07:02:08;;;;;;;10.13;5.83;;;4.00;87.00;;;;;;5007166;28;20212;-81
2021/04/04 07:04:50;;;;;;;6.13;5.53;;;3.90;86.80;;;;;;5011370;28;20207;-81
2021/04/04 07:07:47;;;;;;;7.27;5.90;;;4.00;86.90;;;;;;5001628;28;20211;-82
2021/04/04 07:10:31;;;;;;;17.23;12.07;;;4.10;87.00;;;;;;4984575;28;20216;-82
2021/04/04 07:13:24;;;;;;;21.37;14.67;;;4.20;86.20;;;;;;5015785;28;20187;-83
2021/04/04 07:16:27;;;;;;;17.73;11.77;;;4.40;86.00;;;;;;4999421;28;20226;-80
2021/04/04 07:19:21;;;;;;;20.30;14.43;;;4.40;85.10;;;;;;4984813;28;20226;-82
2021/04/04 07:22:06;;;;;;;20.37;13.90;;;4.30;85.30;;;;;;5008755;28;20211;-82
2021/04/04 07:24:49;;;;;;;21.67;15.67;;;4.30;85.60;;;;;;5002152;28;20210;-81
2021/04/04 07:27:28;;;;;;;18.10;13.53;;;4.20;85.80;;;;;;5002508;28;20249;-81
2021/04/04 07:30:28;;;;;;;20.73;14.50;;;4.40;85.50;;;;;;5005608;28;20249;-84
2021/04/04 07:33:15;;;;;;;17.97;11.77;;;4.40;85.70;;;;;;4999182;28;20218;-83
2021/04/04 07:35:58;;;;;;;18.70;12.13;;;4.40;85.10;;;;;;5004845;28;20222;-80
2021/04/04 07:38:37;;;;;;;10.07;8.60;;;4.50;85.40;;;;;;4996883;28;20578;-82
2021/04/04 07:41:10;;;;;;;10.30;7.63;;;4.60;84.90;;;;;;4996696;28;20209;-82
2021/04/04 07:43:48;;;;;;;9.93;7.10;;;4.50;84.80;;;;;;4997276;28;20215;-81
2021/04/04 07:46:23;;;;;;;9.10;6.70;;;4.30;85.00;;;;;;4995320;28;20218;-83
2021/04/04 07:49:00;;;;;;;13.73;10.70;;;4.40;85.20;;;;;;4993957;28;20206;-81
2021/04/04 07:51:32;;;;;;;16.00;11.07;;;4.40;85.10;;;;;;4998373;28;20204;-81
2021/04/04 07:54:03;;;;;;;11.03;7.97;;;4.30;85.00;;;;;;4996297;28;20207;-83
2021/04/04 07:56:39;;;;;;;10.53;6.67;;;4.40;85.20;;;;;;4999980;28;20207;-82
2021/04/04 07:59:26;;;;;;;8.50;5.90;;;4.50;85.30;;;;;;5006763;28;20296;-82
2021/04/04 08:02:00;;;;;;;8.30;6.03;;;4.60;85.00;;;;;;5001640;28;20264;-82
2021/04/04 08:04:39;;;;;;;10.97;8.60;;;4.80;84.90;;;;;;5003370;28;20203;-82
2021/04/04 08:07:12;;;;;;;11.07;7.40;;;5.00;84.90;;;;;;5001043;28;20229;-82
2021/04/04 08:09:48;;;;;;;8.53;7.13;;;5.20;84.70;;;;;;5002134;28;20204;-84
2021/04/04 08:12:30;;;;;;;9.37;6.63;;;5.20;84.30;;;;;;5003842;28;20208;-82
2021/04/04 08:15:05;;;;;;;9.33;6.90;;;5.20;83.30;;;;;;4996695;28;20228;-83
2021/04/04 08:17:35;;;;;;;8.50;7.20;;;5.10;83.20;;;;;;5000950;28;20223;-83
2021/04/04 08:20:07;;;;;;;11.40;6.83;;;5.20;83.40;;;;;;4994246;28;20589;-82
2021/04/04 08:22:40;;;;;;;8.57;6.83;;;5.20;83.60;;;;;;5004451;28;20199;-80
2021/04/04 08:25:14;;;;;;;9.80;7.77;;;5.20;83.40;;;;;;5001307;28;20219;-83
2021/04/04 08:27:51;;;;;;;9.50;6.93;;;5.30;83.20;;;;;;4996315;28;20214;-83
2021/04/04 08:30:24;;;;;;;10.60;9.50;;;5.40;82.70;;;;;;4994275;28;20653;-81
2021/04/04 08:32:54;;;;;;;13.20;9.90;;;5.40;82.60;;;;;;4993078;28;20196;-81
2021/04/04 08:35:25;;;;;;;12.23;9.50;;;5.40;82.10;;;;;;4994633;28;20289;-80
2021/04/04 08:38:00;;;;;;;9.73;8.27;;;5.20;82.00;;;;;;5014031;28;20210;-83
2021/04/04 08:40:32;;;;;;;13.77;9.47;;;5.10;82.30;;;;;;5019342;28;20230;-82
2021/04/04 08:43:00;;;;;;;8.47;7.47;;;5.00;82.40;;;;;;5017423;28;20200;-81
2021/04/04 08:45:35;;;;;;;10.63;8.57;;;4.90;82.30;;;;;;5004802;28;20206;-81
2021/04/04 08:48:04;;;;;;;13.07;8.97;;;4.90;82.70;;;;;;5017351;28;20210;-80
2021/04/04 08:50:36;;;;;;;12.00;9.17;;;4.90;82.20;;;;;;5007434;28;20369;-81
2021/04/04 08:53:14;;;;;;;12.23;9.17;;;4.90;82.40;;;;;;5003090;28;20199;-80
2021/04/04 08:55:44;;;;;;;15.20;11.40;;;4.90;82.60;;;;;;4996650;28;20228;-81
2021/04/04 08:58:16;;;;;;;13.80;10.37;;;5.00;82.90;;;;;;4997590;28;20203;-83
2021/04/04 09:00:47;;;;;;;10.77;8.17;;;5.00;82.60;;;;;;4998781;28;20212;-83
2021/04/04 09:03:20;;;;;;;11.43;8.30;;;5.10;82.10;;;;;;4997948;28;20735;-82
2021/04/04 09:05:48;;;;;;;9.13;7.23;;;5.20;81.60;;;;;;5000702;28;20627;-82
2021/04/04 09:08:18;;;;;;;10.77;7.57;;;5.10;80.90;;;;;;5000570;28;20270;-81
2021/04/04 09:10:47;;;;;;;9.47;6.37;;;5.10;80.90;;;;;;5014042;28;20195;-83
2021/04/04 09:13:16;;;;;;;7.57;6.10;;;5.20;81.10;;;;;;4996023;28;20212;-83
2021/04/04 09:15:48;;;;;;;6.30;5.30;;;5.30;80.70;;;;;;4997006;28;20227;-82
2021/04/04 09:18:17;;;;;;;9.73;6.33;;;5.40;79.80;;;;;;4997886;28;20219;-84
2021/04/04 09:20:47;;;;;;;8.03;5.60;;;5.40;80.10;;;;;;4997317;28;20208;-83
2021/04/04 09:23:16;;;;;;;7.40;6.03;;;5.40;80.30;;;;;;4999639;28;20698;-83
2021/04/04 09:25:53;;;;;;;4.83;3.40;;;5.50;80.40;;;;;;5000509;28;20728;-81
2021/04/04 09:28:26;;;;;;;3.03;2.73;;;5.60;78.60;;;;;;4997553;28;20211;-83
2021/04/04 09:30:54;;;;;;;2.83;2.63;;;5.70;78.50;;;;;;4999701;28;20199;-81
2021/04/04 09:33:28;;;;;;;4.83;2.97;;;5.60;78.60;;;;;;4997838;28;20223;-82
2021/04/04 09:35:58;;;;;;;3.87;3.47;;;5.80;78.40;;;;;;5002546;28;20254;-82
2021/04/04 09:38:31;;;;;;;5.20;3.60;;;5.80;78.40;;;;;;5007692;28;20204;-81
2021/04/04 09:41:01;;;;;;;4.30;3.40;;;5.90;78.30;;;;;;5016735;28;20913;-82
2021/04/04 09:43:29;;;;;;;3.63;3.33;;;5.90;78.10;;;;;;5014907;28;20200;-83
2021/04/04 09:46:05;;;;;;;5.00;3.47;;;6.00;78.30;;;;;;5016213;28;20203;-81
2021/04/04 09:48:39;;;;;;;4.67;3.23;;;6.20;77.70;;;;;;5014144;28;20560;-84
2021/04/04 09:51:09;;;;;;;4.03;3.10;;;6.30;77.80;;;;;;5011436;28;20195;-82
2021/04/04 09:53:38;;;;;;;3.30;2.73;;;6.40;77.30;;;;;;4998098;28;20275;-83
2021/04/04 09:56:11;;;;;;;3.47;2.20;;;6.40;76.70;;;;;;4999559;28;20354;-81
2021/04/04 09:58:41;;;;;;;2.27;1.90;;;6.50;76.50;;;;;;5001808;28;20693;-82
2021/04/04 10:01:17;;;;;;;3.63;2.50;;;6.70;76.50;;;;;;5004948;28;20313;-82
2021/04/04 10:04:01;;;;;;;3.57;2.40;;;6.70;75.40;;;;;;5008155;28;20204;-81
2021/04/04 10:06:30;;;;;;;3.93;2.83;;;6.70;75.20;;;;;;5013428;28;20204;-84
2021/04/04 10:09:05;;;;;;;2.17;1.93;;;6.90;75.90;;;;;;5014079;28;20197;-83
2021/04/04 10:11:33;;;;;;;2.10;1.90;;;7.20;75.10;;;;;;5004116;28;20210;-82
2021/04/04 10:14:09;;;;;;;3.37;2.03;;;7.40;73.90;;;;;;5002790;28;20214;-80
2021/04/04 10:16:40;;;;;;;1.97;1.80;;;7.70;72.30;;;;;;4998113;28;20202;-82
2021/04/04 10:19:09;;;;;;;3.03;2.07;;;7.70;71.60;;;;;;5004253;28;20215;-82
2021/04/04 10:21:38;;;;;;;2.57;1.97;;;7.70;71.30;;;;;;4997214;28;20308;-83
2021/04/04 10:24:27;;;;;;;3.40;2.00;;;7.50;71.40;;;;;;5009906;28;20226;-83
2021/04/04 10:27:19;;;;;;;1.87;1.70;;;7.50;70.70;;;;;;5011694;28;20221;-82
2021/04/04 10:29:49;;;;;;;2.70;2.03;;;7.70;70.20;;;;;;5009096;28;20211;-82
2021/04/04 10:32:26;;;;;;;2.13;1.90;;;7.90;70.10;;;;;;5005030;28;20207;-83
2021/04/04 10:34:55;;;;;;;3.47;2.17;;;8.20;68.60;;;;;;5006278;28;20294;-84
2021/04/04 10:37:28;;;;;;;1.90;1.70;;;8.60;68.90;;;;;;5017570;28;20199;-81
2021/04/04 10:39:57;;;;;;;1.77;1.67;;;8.60;65.70;;;;;;5021807;28;20241;-83
2021/04/04 10:42:26;;;;;;;1.80;1.67;;;8.60;67.00;;;;;;5019087;28;20185;-83
2021/04/04 10:45:10;;;;;;;3.20;2.10;;;8.60;66.00;;;;;;5017156;28;20610;-81
2021/04/04 10:47:39;;;;;;;2.50;1.90;;;8.60;65.90;;;;;;5016808;28;20240;-81
2021/04/04 10:50:10;;;;;;;2.77;2.10;;;8.50;66.00;;;;;;5022609;28;20203;-82
2021/04/04 10:52:39;;;;;;;1.77;1.30;;;8.40;66.70;;;;;;5015842;28;20187;-81
2021/04/04 10:55:09;;;;;;;2.57;2.07;;;8.30;64.50;;;;;;5020915;28;20464;-83
2021/04/04 10:57:39;;;;;;;3.77;1.93;;;8.20;64.20;;;;;;5003010;28;20231;-81
2021/04/04 11:00:09;;;;;;;2.87;2.00;;;8.30;64.60;;;;;;5000826;28;20207;-83
2021/04/04 11:02:39;;;;;;;2.10;1.90;;;8.50;64.60;;;;;;4997602;28;20227;-83
2021/04/04 11:05:08;;;;;;;2.87;1.97;;;8.70;63.90;;;;;;5004612;28;20204;-82
2021/04/04 11:07:36;;;;;;;1.60;1.43;;;8.70;63.30;;;;;;5016729;28;20199;-81
2021/04/04 11:10:07;;;;;;;3.00;2.10;;;8.60;63.30;;;;;;5011415;28;20207;-83
2021/04/04 11:12:39;;;;;;;2.93;1.87;;;8.40;63.50;;;;;;5004590;28;20196;-82
2021/04/04 11:15:12;;;;;;;2.63;1.80;;;8.40;63.00;;;;;;5003212;28;20224;-82
2021/04/04 11:17:45;;;;;;;3.80;2.20;;;8.40;63.70;;;;;;4998754;28;20207;-81
2021/04/04 11:20:19;;;;;;;2.20;1.97;;;8.70;63.70;;;;;;5007029;28;20212;-83
2021/04/04 11:22:48;;;;;;;2.83;2.00;;;9.10;63.50;;;;;;5009033;28;20398;-81
2021/04/04 11:25:17;;;;;;;2.67;1.97;;;9.20;62.60;;;;;;5007630;28;20247;-82
2021/04/04 11:27:48;;;;;;;3.70;1.80;;;9.30;62.50;;;;;;5001579;28;20209;-83
2021/04/04 11:30:36;;;;;;;1.37;1.20;;;9.30;62.40;;;;;;5012916;28;20204;-82
2021/04/04 11:33:20;;;;;;;1.57;1.40;;;9.50;61.50;;;;;;5019614;28;20212;-82
2021/04/04 11:36:09;;;;;;;2.10;1.60;;;9.60;60.60;;;;;;5015251;28;20237;-83
2021/04/04 11:38:40;;;;;;;1.60;1.50;;;9.50;61.00;;;;;;5000464;28;20204;-82
2021/04/04 11:41:14;;;;;;;1.57;1.47;;;9.30;61.20;;;;;;4999246;28;20748;-81
2021/04/04 11:43:43;;;;;;;1.97;1.43;;;9.30;60.90;;;;;;4995992;28;20206;-82
2021/04/04 11:46:43;;;;;;;2.53;1.50;;;9.40;61.50;;;;;;4997731;28;20199;-81
2021/04/04 11:49:32;;;;;;;1.57;1.40;;;9.60;59.70;;;;;;5012410;28;20197;-82
2021/04/04 11:52:01;;;;;;;2.17;1.60;;;9.70;60.30;;;;;;5004473;28;20203;-83
2021/04/04 11:54:51;;;;;;;3.60;1.43;;;9.90;58.90;;;;;;5018228;28;20201;-82
2021/04/04 11:57:21;;;;;;;1.90;1.77;;;9.80;58.00;;;;;;5017248;28;20258;-81
2021/04/04 11:59:51;;;;;;;2.00;1.50;;;9.70;57.60;;;;;;5007232;28;20353;-82
2021/04/04 12:02:20;;;;;;;2.47;1.60;;;9.90;59.40;;;;;;5014297;28;20194;-81
2021/04/04 12:04:59;;;;;;;2.23;1.53;;;9.90;56.80;;;;;;5002020;28;20214;-83
2021/04/04 12:07:27;;;;;;;1.83;1.70;;;9.80;57.20;;;;;;4998395;28;20222;-83
2021/04/04 12:09:56;;;;;;;2.10;1.80;;;9.90;56.70;;;;;;4993187;28;20210;-82
2021/04/04 12:12:44;;;;;;;3.13;1.90;;;9.70;56.00;;;;;;5000369;28;20209;-82
2021/04/04 12:15:17;;;;;;;1.67;1.50;;;9.40;55.40;;;;;;5006903;28;20246;-83
2021/04/04 12:17:46;;;;;;;2.80;1.73;;;9.30;56.50;;;;;;5003427;28;20250;-82
2021/04/04 12:20:14;;;;;;;1.93;1.60;;;9.40;57.70;;;;;;5011591;28;20212;-82
2021/04/04 12:22:45;;;;;;;2.53;1.77;;;9.60;57.50;;;;;;5008013;28;20276;-81
2021/04/04 12:25:15;;;;;;;2.03;1.47;;;9.90;57.00;;;;;;5007567;28;20222;-82
2021/04/04 12:27:44;;;;;;;3.97;1.60;;;10.10;56.40;;;;;;5002727;28;20214;-85
2021/04/04 12:30:24;;;;;;;2.10;1.70;;;10.20;54.90;;;;;;4995433;28;20302;-82
2021/04/04 12:33:04;;;;;;;2.47;1.50;;;9.60;54.10;;;;;;4999887;28;20722;-81
2021/04/04 12:35:35;;;;;;;3.03;2.20;;;9.60;54.20;;;;;;5006022;28;20222;-84
2021/04/04 12:38:23;;;;;;;3.03;1.90;;;9.70;54.90;;;;;;5009820;28;20585;-82
2021/04/04 12:40:52;;;;;;;1.90;1.80;;;9.70;54.70;;;;;;4996530;28;20201;-82
2021/04/04 12:43:20;;;;;;;2.20;1.80;;;9.60;53.10;;;;;;5001154;28;20212;-81
2021/04/04 12:45:52;;;;;;;1.93;1.70;;;9.30;52.80;;;;;;4998186;28;21081;-80
2021/04/04 12:48:22;;;;;;;2.43;1.70;;;9.20;54.50;;;;;;5004540;28;20204;-82
2021/04/04 12:50:55;;;;;;;2.50;1.43;;;9.30;54.70;;;;;;5002473;28;20215;-82
2021/04/04 12:53:26;;;;;;;2.17;1.60;;;9.50;52.00;;;;;;4999547;28;20204;-82
2021/04/04 12:55:56;;;;;;;3.03;1.57;;;9.60;52.20;;;;;;5005876;28;20232;-81
2021/04/04 12:58:34;;;;;;;1.63;1.50;;;9.60;51.10;;;;;;5013879;28;20212;-84
2021/04/04 13:01:06;;;;;;;1.97;1.67;;;9.60;50.30;;;;;;5017398;28;20258;-82
2021/04/04 13:03:35;;;;;;;2.17;1.57;;;9.60;49.90;;;;;;5186943;23;20223;-83
2021/04/04 13:06:04;;;;;;;1.77;1.30;;;9.50;49.20;;;;;;5017799;28;20292;-83
2021/04/04 13:08:33;;;;;;;1.43;1.20;;;9.30;49.60;;;;;;5014539;28;20188;-84
2021/04/04 13:11:06;;;;;;;1.60;1.50;;;9.30;50.40;;;;;;5013482;28;20963;-85
2021/04/04 13:13:36;;;;;;;1.93;1.30;;;9.40;49.40;;;;;;5039473;23;20516;-83
2021/04/04 13:16:07;;;;;;;1.50;1.37;;;9.40;48.30;;;;;;5027495;28;20317;-83
2021/04/04 13:18:43;;;;;;;2.07;1.67;;;9.30;47.90;;;;;;5025294;28;20234;-83
2021/04/04 13:21:30;;;;;;;2.53;1.70;;;9.00;47.90;;;;;;5024452;28;20242;-83